Time;durP1;ratioP1;P1;durP2;ratioP2;P2;SDS_P1;SDS_P2;PMS_P1;PMS_P2;Temp;Humidity;BMP_temperature;BMP_pressure;BME280_temperature;BME280_humidity;BME280_pressure;Samples;Min_cycle;Max_cycle;Signal;HPM_P1;HPM_P2
2023/07/24 00:02:17;;;;;;;24.73;8.48;;;;;;;17.42;70.88;101004.00;5032494;28;20029;-47
2023/07/24 00:04:43;;;;;;;22.25;7.43;;;;;;;17.48;71.25;101000.31;5032266;28;20041;-46
2023/07/24 00:07:09;;;;;;;25.17;7.68;;;;;;;17.47;71.80;101003.25;5032474;28;20022;-47
2023/07/24 00:09:35;;;;;;;21.52;7.72;;;;;;;17.60;71.22;101005.59;5050435;28;20513;-45
2023/07/24 00:12:02;;;;;;;23.30;7.72;;;;;;;17.65;70.77;101013.81;5052446;28;20025;-49
2023/07/24 00:14:28;;;;;;;25.70;7.55;;;;;;;17.78;71.63;101010.78;5052146;28;20390;-45
2023/07/24 00:16:54;;;;;;;25.38;8.23;;;;;;;17.80;70.27;101007.84;5058242;23;20012;-45
2023/07/24 00:19:20;;;;;;;29.63;8.23;;;;;;;17.96;69.26;101012.38;5052347;28;20479;-48
2023/07/24 00:21:46;;;;;;;28.25;7.85;;;;;;;18.23;69.34;101014.34;5052352;28;20115;-48
2023/07/24 00:24:13;;;;;;;22.23;8.80;;;;;;;18.35;68.29;101013.13;5052345;28;20056;-45
2023/07/24 00:26:39;;;;;;;20.45;6.57;;;;;;;18.50;67.44;101015.22;5054053;28;20039;-46
2023/07/24 00:29:05;;;;;;;27.83;8.15;;;;;;;18.29;67.82;101016.88;5071952;28;20405;-49
2023/07/24 00:31:31;;;;;;;20.33;6.97;;;;;;;18.37;68.10;101021.81;5072246;28;20021;-45
2023/07/24 00:34:00;;;;;;;24.70;7.95;;;;;;;18.34;67.33;101024.25;5071957;28;20054;-46
2023/07/24 00:36:27;;;;;;;18.55;6.82;;;;;;;18.00;68.48;101018.13;5071550;28;20446;-47
2023/07/24 00:38:53;;;;;;;23.70;6.78;;;;;;;18.18;68.34;101024.06;5071850;28;20052;-44
2023/07/24 00:41:19;;;;;;;26.88;7.93;;;;;;;18.39;68.53;101016.19;5071818;28;20423;-45
2023/07/24 00:43:45;;;;;;;30.20;7.60;;;;;;;18.28;68.07;101020.66;5071789;28;20444;-45
2023/07/24 00:46:12;;;;;;;22.02;7.55;;;;;;;18.37;68.01;101007.47;5024531;28;20021;-45
2023/07/24 00:48:39;;;;;;;24.00;7.75;;;;;;;18.14;68.71;101017.50;5040188;28;20102;-45
2023/07/24 00:51:06;;;;;;;28.70;7.85;;;;;;;18.13;68.49;101012.34;5043309;28;20036;-45
2023/07/24 00:53:32;;;;;;;23.98;7.43;;;;;;;18.23;69.45;101028.72;5051674;28;20394;-44
2023/07/24 00:55:59;;;;;;;28.85;7.32;;;;;;;18.12;67.82;101019.66;5050692;28;20029;-44
2023/07/24 00:58:26;;;;;;;19.23;7.28;;;;;;;17.98;68.49;101007.53;5051600;28;20035;-45
2023/07/24 01:00:52;;;;;;;25.40;7.25;;;;;;;18.09;68.71;101024.72;5051461;28;20043;-45
2023/07/24 01:03:18;;;;;;;22.48;7.72;;;;;;;17.77;68.94;101032.72;5038836;28;20475;-45
2023/07/24 01:05:45;;;;;;;21.92;7.18;;;;;;;17.78;69.27;101037.88;5050243;28;20525;-45
2023/07/24 01:08:11;;;;;;;18.95;7.55;;;;;;;17.54;69.96;101039.91;5050976;28;20494;-45
2023/07/24 01:10:38;;;;;;;28.83;8.07;;;;;;;17.33;70.79;101044.19;5051479;28;20586;-46
2023/07/24 01:13:19;;;;;;;24.52;7.38;;;;;;;17.39;71.52;101040.50;5051513;28;20086;-45
2023/07/24 01:16:09;;;;;;;21.98;7.32;;;;;;;17.46;71.03;101039.50;5048615;28;20049;-45
2023/07/24 01:18:38;;;;;;;21.25;7.47;;;;;;;17.30;71.45;101044.66;5050120;28;20040;-47
2023/07/24 01:21:09;;;;;;;22.25;7.32;;;;;;;17.38;71.36;101038.88;5043014;28;20064;-48
2023/07/24 01:23:52;;;;;;;19.95;7.47;;;;;;;17.21;72.17;101043.44;5051368;28;20048;-49
2023/07/24 01:26:21;;;;;;;18.02;6.82;;;;;;;17.13;71.96;101052.78;5048408;28;20028;-45
2023/07/24 01:28:47;;;;;;;23.00;6.93;;;;;;;17.15;72.21;101041.69;5042105;28;20029;-47
2023/07/24 01:31:13;;;;;;;17.63;7.45;;;;;;;17.18;72.26;101045.81;5047433;28;20918;-45
2023/07/24 01:33:40;;;;;;;29.20;7.80;;;;;;;17.00;72.34;101044.97;5050686;28;20029;-46
2023/07/24 01:36:07;;;;;;;21.00;7.28;;;;;;;17.14;72.55;101050.88;5050685;28;20044;-43
2023/07/24 01:38:35;;;;;;;17.20;6.65;;;;;;;17.04;72.71;101050.72;5050185;28;20027;-45
2023/07/24 01:41:03;;;;;;;19.90;7.60;;;;;;;16.83;73.59;101063.88;5048338;28;20146;-41
2023/07/24 01:43:31;;;;;;;20.55;6.85;;;;;;;16.62;74.41;101054.53;5045425;28;20111;-44
2023/07/24 01:45:58;;;;;;;23.58;7.18;;;;;;;16.67;74.59;101056.50;5049965;28;20025;-44
2023/07/24 01:48:25;;;;;;;22.65;7.45;;;;;;;16.62;74.63;101065.34;5050955;28;20041;-46
2023/07/24 01:50:51;;;;;;;19.52;7.20;;;;;;;16.59;74.71;101071.19;5048925;28;20464;-44
2023/07/24 01:53:18;;;;;;;26.10;7.63;;;;;;;16.68;74.65;101068.13;5046199;28;20014;-42
2023/07/24 01:55:44;;;;;;;23.25;8.13;;;;;;;16.68;74.67;101084.34;5041171;28;20788;-43
2023/07/24 01:58:10;;;;;;;21.38;7.90;;;;;;;16.57;75.19;101077.91;5051294;28;20041;-42
2023/07/24 02:00:37;;;;;;;25.42;8.07;;;;;;;16.61;75.44;101073.69;5051280;28;20024;-43
2023/07/24 02:03:03;;;;;;;31.17;8.82;;;;;;;16.35;76.04;101075.03;5051442;28;20029;-43
2023/07/24 02:05:30;;;;;;;27.77;7.95;;;;;;;16.29;76.21;101082.22;5051278;28;20104;-43
2023/07/24 02:07:56;;;;;;;28.52;7.97;;;;;;;16.26;76.56;101076.47;5051093;28;20028;-42
2023/07/24 02:10:22;;;;;;;26.17;7.10;;;;;;;16.04;77.79;101087.06;5050174;28;20028;-44
2023/07/24 02:12:49;;;;;;;24.75;8.65;;;;;;;15.85;78.78;101094.47;5051548;28;20033;-42
2023/07/24 02:15:15;;;;;;;24.88;7.38;;;;;;;15.70;79.83;101089.53;5050949;28;20103;-42
2023/07/24 02:17:42;;;;;;;33.17;9.18;;;;;;;15.57;80.31;101093.25;5050993;28;20080;-42
2023/07/24 02:20:09;;;;;;;22.95;8.10;;;;;;;15.79;80.29;101098.09;5049853;28;20029;-41
2023/07/24 02:22:35;;;;;;;26.08;8.68;;;;;;;16.01;78.62;101101.88;5033977;28;20033;-42
2023/07/24 02:25:01;;;;;;;26.15;7.95;;;;;;;16.18;77.88;101106.53;5034327;28;20029;-42
2023/07/24 02:27:31;;;;;;;28.98;7.72;;;;;;;16.61;76.46;101093.44;5033920;28;20026;-43
2023/07/24 02:29:58;;;;;;;23.75;7.70;;;;;;;16.91;74.97;101100.50;5034416;28;20441;-42
2023/07/24 02:32:24;;;;;;;26.23;7.28;;;;;;;16.99;73.85;101094.72;5036632;28;20029;-43
2023/07/24 02:34:52;;;;;;;24.15;7.95;;;;;;;16.78;74.50;101100.81;5053882;28;20425;-42
2023/07/24 02:37:18;;;;;;;23.23;7.35;;;;;;;16.86;74.40;101103.13;5053314;28;20044;-43
2023/07/24 02:39:47;;;;;;;23.60;7.25;;;;;;;16.71;74.82;101109.06;5036594;28;20026;-42
2023/07/24 02:42:13;;;;;;;24.48;8.30;;;;;;;16.84;74.40;101114.19;5040134;28;20399;-42
2023/07/24 02:44:40;;;;;;;21.85;7.30;;;;;;;16.59;75.50;101106.34;5049326;28;20048;-42
2023/07/24 02:47:06;;;;;;;17.42;6.68;;;;;;;16.49;76.35;101113.41;5034419;28;20041;-43
2023/07/24 02:49:33;;;;;;;25.75;7.60;;;;;;;16.47;76.07;101116.34;5038215;28;20115;-43
2023/07/24 02:52:00;;;;;;;23.20;7.93;;;;;;;16.16;77.32;101116.75;5053678;28;20391;-42
2023/07/24 02:54:27;;;;;;;24.08;7.13;;;;;;;16.00;78.57;101107.50;5053587;28;20056;-43
2023/07/24 02:56:53;;;;;;;21.20;7.80;;;;;;;15.85;79.22;101113.38;5053656;28;20058;-43
2023/07/24 02:59:19;;;;;;;18.50;7.50;;;;;;;15.72;79.92;101108.19;5053666;28;20025;-42
2023/07/24 03:01:46;;;;;;;22.52;7.82;;;;;;;15.57;81.16;101112.13;5053217;28;20044;-43
2023/07/24 03:04:12;;;;;;;24.73;8.52;;;;;;;15.64;80.64;101111.22;5053300;28;20036;-42
2023/07/24 03:06:40;;;;;;;21.17;8.05;;;;;;;15.57;81.57;101106.72;5052786;28;20021;-43
2023/07/24 03:09:07;;;;;;;20.77;7.22;;;;;;;15.51;81.08;101106.84;5053330;28;20171;-43
2023/07/24 03:11:33;;;;;;;21.17;7.55;;;;;;;15.46;81.57;101104.84;5053239;28;20036;-43
2023/07/24 03:13:59;;;;;;;27.50;8.57;;;;;;;15.43;82.26;101107.97;5053620;28;20036;-44
2023/07/24 03:16:25;;;;;;;31.33;9.23;;;;;;;15.36;82.77;101106.44;5036914;28;20026;-43
2023/07/24 03:18:51;;;;;;;33.20;8.20;;;;;;;15.39;82.44;101112.22;5053156;28;20076;-43
2023/07/24 03:21:19;;;;;;;27.02;8.20;;;;;;;15.36;82.81;101114.53;5051283;28;20087;-43
2023/07/24 03:23:45;;;;;;;30.17;8.45;;;;;;;15.34;82.58;101112.09;5053176;28;20025;-44
2023/07/24 03:26:11;;;;;;;19.95;7.97;;;;;;;15.23;83.56;101118.28;5049252;28;20018;-42
2023/07/24 03:28:37;;;;;;;19.70;7.68;;;;;;;15.14;84.42;101114.25;5052836;28;20382;-42
2023/07/24 03:31:04;;;;;;;21.02;7.75;;;;;;;15.12;84.49;101125.28;5053039;28;20390;-43
2023/07/24 03:33:30;;;;;;;23.45;7.95;;;;;;;15.09;84.49;101135.69;5053306;28;20357;-44
2023/07/24 03:35:56;;;;;;;23.50;7.85;;;;;;;15.13;84.55;101136.88;5052939;28;20395;-44
2023/07/24 03:38:22;;;;;;;31.65;9.27;;;;;;;15.01;85.38;101134.94;5052773;28;20494;-43
2023/07/24 03:40:49;;;;;;;24.08;8.25;;;;;;;15.04;84.84;101137.19;5052716;28;20095;-43
2023/07/24 03:43:15;;;;;;;27.85;8.77;;;;;;;15.06;84.98;101128.88;5052880;28;20099;-43
2023/07/24 03:45:43;;;;;;;22.58;7.32;;;;;;;15.04;85.24;101128.28;5048349;28;20036;-41
2023/07/24 03:48:09;;;;;;;20.15;7.50;;;;;;;14.95;85.78;101129.66;5052760;28;20359;-42
2023/07/24 03:50:35;;;;;;;23.35;7.88;;;;;;;14.93;85.55;101127.16;5052725;28;20033;-42
2023/07/24 03:53:02;;;;;;;24.80;7.78;;;;;;;14.93;85.62;101129.03;5052771;28;20395;-42
2023/07/24 03:55:28;;;;;;;30.42;8.48;;;;;;;15.00;85.45;101121.72;5052382;28;20024;-42
2023/07/24 03:57:54;;;;;;;39.25;8.57;;;;;;;14.92;85.84;101119.31;5052520;28;20028;-43
2023/07/24 04:00:20;;;;;;;22.40;7.90;;;;;;;14.88;86.41;101118.97;5052751;28;20020;-41
2023/07/24 04:02:47;;;;;;;24.17;8.50;;;;;;;14.86;86.41;101125.63;5052286;28;20483;-42
2023/07/24 04:05:13;;;;;;;27.80;7.88;;;;;;;14.87;86.44;101132.66;5052246;28;20429;-42
2023/07/24 04:07:40;;;;;;;28.85;8.73;;;;;;;14.85;86.58;101138.28;5052069;28;20021;-42
2023/07/24 04:10:07;;;;;;;28.23;8.48;;;;;;;14.77;87.02;101128.63;5052368;28;20083;-42
2023/07/24 04:12:33;;;;;;;23.27;7.82;;;;;;;14.74;87.17;101136.34;5052070;28;20037;-42
2023/07/24 04:14:59;;;;;;;31.33;8.77;;;;;;;14.71;87.32;101150.25;5045417;28;20430;-42
2023/07/24 04:17:25;;;;;;;27.27;8.38;;;;;;;14.73;87.17;101153.56;5032130;28;20033;-43
2023/07/24 04:19:52;;;;;;;28.08;8.60;;;;;;;14.67;87.83;101154.47;5052050;28;20028;-44
2023/07/24 04:22:18;;;;;;;26.75;8.55;;;;;;;14.67;88.08;101162.56;5052046;28;20029;-43
2023/07/24 04:24:44;;;;;;;24.90;8.07;;;;;;;14.66;88.13;101169.00;5049460;28;20124;-42
2023/07/24 04:27:10;;;;;;;27.98;8.38;;;;;;;14.70;87.92;101170.16;5050001;28;20036;-44
2023/07/24 04:29:37;;;;;;;31.27;8.55;;;;;;;14.71;88.09;101163.72;5052076;28;20063;-42
2023/07/24 04:32:03;;;;;;;35.45;8.70;;;;;;;14.64;88.37;101165.69;5051732;28;20021;-44
2023/07/24 04:34:29;;;;;;;26.67;9.45;;;;;;;14.64;88.64;101165.69;5051632;28;20021;-42
2023/07/24 04:36:56;;;;;;;27.40;8.90;;;;;;;14.64;88.40;101166.50;5051690;28;20222;-44
2023/07/24 04:39:22;;;;;;;23.73;8.18;;;;;;;14.65;88.64;101167.31;5051972;28;20051;-43
2023/07/24 04:41:48;;;;;;;32.40;8.95;;;;;;;14.62;88.66;101174.00;5051184;28;20565;-43
2023/07/24 04:44:14;;;;;;;27.67;8.60;;;;;;;14.60;88.65;101181.47;5051433;28;20020;-41
2023/07/24 04:46:41;;;;;;;27.08;8.25;;;;;;;14.56;88.80;101184.84;5051570;28;20051;-42
2023/07/24 04:49:07;;;;;;;30.33;9.05;;;;;;;14.60;88.83;101189.53;5051512;28;20041;-43
2023/07/24 04:51:33;;;;;;;26.33;8.70;;;;;;;14.56;89.10;101190.25;5051628;28;20371;-43
2023/07/24 04:54:00;;;;;;;20.35;8.23;;;;;;;14.58;88.98;101196.22;5051545;28;20036;-42
2023/07/24 04:56:26;;;;;;;30.98;8.60;;;;;;;14.56;89.28;101195.63;5051457;28;20228;-43
2023/07/24 04:58:52;;;;;;;29.08;8.77;;;;;;;14.62;88.49;101200.13;5051473;28;20025;-42
2023/07/24 05:01:18;;;;;;;27.98;9.13;;;;;;;14.50;88.79;101203.56;5051800;28;20070;-43
2023/07/24 05:03:44;;;;;;;29.05;9.18;;;;;;;14.50;89.07;101198.16;5051710;28;20475;-43
2023/07/24 05:06:11;;;;;;;21.40;8.38;;;;;;;14.47;89.50;101192.38;5051131;28;20063;-44
2023/07/24 05:08:37;;;;;;;31.10;8.65;;;;;;;14.57;88.82;101191.88;5049553;28;20120;-42
2023/07/24 05:11:03;;;;;;;22.75;7.70;;;;;;;14.63;88.22;101201.75;5051551;28;20025;-43
2023/07/24 05:13:29;;;;;;;20.55;7.95;;;;;;;14.45;88.94;101200.66;5051570;28;20028;-43
2023/07/24 05:15:56;;;;;;;25.90;8.45;;;;;;;14.55;88.55;101205.59;5036012;28;20018;-45
2023/07/24 05:18:22;;;;;;;25.63;8.38;;;;;;;14.47;88.95;101192.38;5049157;28;20040;-43
2023/07/24 05:20:52;;;;;;;24.83;8.00;;;;;;;14.41;89.26;101199.47;5051520;28;20024;-44
2023/07/24 05:23:18;;;;;;;28.05;8.65;;;;;;;14.38;89.96;101199.06;5050221;28;20025;-41
2023/07/24 05:25:45;;;;;;;29.23;8.77;;;;;;;14.42;89.30;101201.09;5051608;28;20104;-42
2023/07/24 05:28:11;;;;;;;24.73;7.85;;;;;;;14.41;89.14;101207.53;5050164;28;20021;-43
2023/07/24 05:30:37;;;;;;;26.95;9.05;;;;;;;14.46;88.69;101204.19;5051200;28;20029;-42
2023/07/24 05:33:04;;;;;;;24.90;8.70;;;;;;;14.44;89.09;101201.72;5051318;28;20471;-41
2023/07/24 05:35:30;;;;;;;30.05;8.50;;;;;;;14.41;88.88;101217.50;5051060;28;20402;-43
2023/07/24 05:37:56;;;;;;;31.20;8.32;;;;;;;14.40;88.94;101205.91;5051296;28;20024;-43
2023/07/24 05:40:22;;;;;;;24.80;8.63;;;;;;;14.44;88.54;101203.59;5048643;28;20119;-43
2023/07/24 05:42:49;;;;;;;22.85;9.60;;;;;;;14.42;88.73;101208.34;5050892;28;20025;-42
2023/07/24 05:45:15;;;;;;;21.27;7.97;;;;;;;14.42;88.30;101213.75;5050766;28;20025;-42
2023/07/24 05:47:41;;;;;;;27.55;8.13;;;;;;;14.39;88.16;101206.94;5051304;28;20025;-44
2023/07/24 05:50:08;;;;;;;23.13;8.38;;;;;;;14.37;88.16;101214.41;5051037;28;20112;-44
2023/07/24 05:52:34;;;;;;;23.27;8.00;;;;;;;14.35;88.51;101213.81;5049268;28;20105;-43
2023/07/24 05:55:00;;;;;;;28.40;8.00;;;;;;;14.35;88.40;101205.72;5054379;28;20056;-42
2023/07/24 05:57:27;;;;;;;19.23;8.48;;;;;;;14.29;88.82;101208.50;5055116;28;20029;-43
2023/07/24 05:59:53;;;;;;;21.58;8.43;;;;;;;14.27;88.88;101219.50;5054254;28;20422;-42
2023/07/24 06:02:19;;;;;;;23.55;7.65;;;;;;;14.29;88.72;101212.00;5054561;28;20025;-42
2023/07/24 06:04:46;;;;;;;24.13;8.38;;;;;;;14.24;88.78;101220.75;5053246;28;20800;-42
2023/07/24 06:07:12;;;;;;;25.02;8.32;;;;;;;14.25;88.69;101221.56;5054813;28;20032;-41
2023/07/24 06:09:39;;;;;;;30.05;8.85;;;;;;;14.24;88.31;101220.75;5052994;28;20033;-42
2023/07/24 06:12:05;;;;;;;23.38;8.18;;;;;;;14.23;88.72;101227.19;5051466;28;20793;-42
2023/07/24 06:14:31;;;;;;;30.77;8.57;;;;;;;14.18;88.75;101228.88;5050064;28;20021;-41
2023/07/24 06:16:58;;;;;;;23.30;8.40;;;;;;;14.14;89.02;101231.19;5046544;28;20025;-43
2023/07/24 06:19:24;;;;;;;23.38;7.85;;;;;;;14.30;88.32;101226.28;5054512;28;20116;-43
2023/07/24 06:21:50;;;;;;;21.58;7.53;;;;;;;14.23;88.51;101220.97;5054630;28;20086;-42
2023/07/24 06:24:17;;;;;;;26.38;8.98;;;;;;;14.19;88.69;101217.06;5054275;28;20048;-44
2023/07/24 06:26:44;;;;;;;26.73;7.93;;;;;;;14.24;88.47;101226.13;5054246;28;20386;-45
2023/07/24 06:29:10;;;;;;;19.17;7.50;;;;;;;14.30;88.58;101223.59;5054316;28;20048;-43
2023/07/24 06:31:37;;;;;;;22.77;7.68;;;;;;;14.27;88.24;101231.09;5054163;28;20482;-42
2023/07/24 06:34:03;;;;;;;31.95;8.45;;;;;;;14.26;88.23;101223.22;5054155;28;20025;-42
2023/07/24 06:36:29;;;;;;;27.10;8.27;;;;;;;14.21;88.56;101228.44;5054042;28;20097;-43
2023/07/24 06:38:56;;;;;;;18.85;7.38;;;;;;;14.23;88.47;101219.09;5054049;28;20028;-41
2023/07/24 06:41:22;;;;;;;22.42;8.68;;;;;;;14.14;89.21;101225.81;5054021;28;20025;-42
2023/07/24 06:43:49;;;;;;;23.50;8.15;;;;;;;14.14;88.85;101215.03;5054160;28;20028;-42
2023/07/24 06:46:16;;;;;;;22.35;7.65;;;;;;;14.14;89.19;101224.97;5053799;28;20025;-42
2023/07/24 06:48:42;;;;;;;27.58;8.25;;;;;;;14.19;88.91;101225.16;5053726;28;20029;-43
2023/07/24 06:51:08;;;;;;;21.35;7.65;;;;;;;14.12;89.54;101225.22;5053945;28;20029;-42
2023/07/24 06:53:35;;;;;;;24.05;7.57;;;;;;;14.14;89.15;101233.06;5053965;28;20067;-43
2023/07/24 06:56:01;;;;;;;21.23;7.18;;;;;;;14.11;89.35;101239.72;5053851;28;20143;-43
2023/07/24 06:58:27;;;;;;;25.42;7.75;;;;;;;14.19;88.73;101235.91;5053832;28;20025;-42
2023/07/24 07:00:53;;;;;;;33.00;8.35;;;;;;;14.16;88.83;101239.06;5053302;28;20048;-42
2023/07/24 07:03:19;;;;;;;21.73;7.32;;;;;;;14.15;88.64;101237.38;5054079;28;20025;-42
2023/07/24 07:05:46;;;;;;;27.92;8.18;;;;;;;14.17;88.59;101229.94;5052599;28;20364;-42
2023/07/24 07:08:12;;;;;;;28.98;8.60;;;;;;;14.17;88.42;101235.31;5053759;28;20774;-44
2023/07/24 07:10:38;;;;;;;19.27;7.53;;;;;;;14.16;88.39;101242.56;5053612;28;20525;-43
2023/07/24 07:13:05;;;;;;;26.20;7.43;;;;;;;14.20;88.45;101243.75;5035889;28;20476;-43
2023/07/24 07:15:31;;;;;;;22.55;8.48;;;;;;;14.20;88.04;101246.44;5033149;28;20075;-43
2023/07/24 07:17:57;;;;;;;21.10;7.78;;;;;;;14.14;88.54;101252.72;5033438;28;20133;-45
2023/07/24 07:20:24;;;;;;;20.83;7.50;;;;;;;14.15;88.35;101248.97;5033467;28;20439;-43
2023/07/24 07:22:50;;;;;;;22.50;7.13;;;;;;;14.08;89.16;101255.47;5047570;28;20055;-42
2023/07/24 07:25:16;;;;;;;24.70;7.78;;;;;;;14.09;89.00;101260.63;5053095;28;20238;-43
2023/07/24 07:27:42;;;;;;;21.45;7.50;;;;;;;14.14;88.30;101270.75;5053253;28;20029;-44
2023/07/24 07:30:09;;;;;;;22.33;7.43;;;;;;;14.08;88.72;101261.69;5053269;28;20383;-43
2023/07/24 07:32:36;;;;;;;23.95;8.00;;;;;;;14.05;88.90;101282.81;5051525;28;20121;-42
2023/07/24 07:35:03;;;;;;;26.23;8.50;;;;;;;14.05;88.84;101286.34;5052746;28;20028;-41
2023/07/24 07:37:29;;;;;;;23.90;7.95;;;;;;;14.10;88.51;101272.22;5053118;28;20025;-41
2023/07/24 07:39:55;;;;;;;24.73;7.47;;;;;;;14.14;88.25;101260.78;5051201;28;20029;-43
2023/07/24 07:42:21;;;;;;;25.17;8.52;;;;;;;14.06;88.52;101265.66;5058867;23;20051;-42
2023/07/24 07:44:48;;;;;;;23.90;7.47;;;;;;;14.11;88.48;101268.50;5052661;28;20029;-42
2023/07/24 07:47:14;;;;;;;17.52;7.10;;;;;;;14.02;89.03;101259.03;5052861;28;20024;-45
2023/07/24 07:49:41;;;;;;;24.15;7.38;;;;;;;14.02;89.22;101264.41;5052922;28;20494;-42
2023/07/24 07:52:08;;;;;;;21.77;7.57;;;;;;;14.09;88.57;101255.25;5066212;28;20028;-42
2023/07/24 07:54:34;;;;;;;22.88;7.43;;;;;;;13.97;89.47;101257.81;5072930;28;20073;-43
2023/07/24 07:57:00;;;;;;;19.98;8.20;;;;;;;13.94;89.65;101252.06;5072676;28;20032;-43
2023/07/24 07:59:27;;;;;;;27.60;8.20;;;;;;;13.87;90.32;101243.19;5072718;28;20540;-42
2023/07/24 08:01:53;;;;;;;24.73;7.90;;;;;;;13.84;90.51;101252.53;5072687;28;20036;-43
2023/07/24 08:04:19;;;;;;;23.60;8.23;;;;;;;13.73;91.08;101247.84;5072478;28;20028;-42
2023/07/24 08:06:45;;;;;;;30.35;8.50;;;;;;;13.78;90.89;101249.91;5072259;28;20029;-43
2023/07/24 08:09:12;;;;;;;22.48;7.57;;;;;;;13.83;90.50;101256.28;5065346;28;20032;-43
2023/07/24 08:11:38;;;;;;;24.05;8.02;;;;;;;13.80;90.74;101251.31;5052336;28;20383;-42
2023/07/24 08:14:05;;;;;;;22.42;8.13;;;;;;;13.83;90.26;101242.00;5044060;28;20387;-43
2023/07/24 08:16:31;;;;;;;30.58;8.07;;;;;;;13.75;90.70;101248.44;5031664;28;20033;-42
2023/07/24 08:18:58;;;;;;;29.45;8.80;;;;;;;13.77;90.95;101241.00;5032402;28;20029;-42
2023/07/24 08:21:24;;;;;;;26.10;8.38;;;;;;;13.71;91.43;101241.84;5048216;28;20064;-43
2023/07/24 08:23:50;;;;;;;22.05;8.25;;;;;;;13.68;91.56;101250.38;5052198;28;20032;-43
2023/07/24 08:26:16;;;;;;;23.90;7.85;;;;;;;13.70;91.68;101240.19;5052019;28;20032;-44
2023/07/24 08:28:43;;;;;;;25.90;8.00;;;;;;;13.72;91.34;101246.22;5051720;28;20024;-43
2023/07/24 08:31:09;;;;;;;26.30;8.20;;;;;;;13.74;91.51;101241.44;5051822;28;20025;-42
2023/07/24 08:33:36;;;;;;;23.48;8.15;;;;;;;13.71;91.57;101240.00;5052152;28;20032;-42
2023/07/24 08:36:04;;;;;;;29.75;8.98;;;;;;;13.69;91.72;101238.56;5051636;28;20029;-43
2023/07/24 08:38:31;;;;;;;25.73;8.35;;;;;;;13.61;91.94;101241.53;5052008;28;20024;-43
2023/07/24 08:41:11;;;;;;;27.25;9.32;;;;;;;13.72;91.32;101238.13;5051968;28;20049;-43
2023/07/24 08:43:39;;;;;;;24.73;8.63;;;;;;;13.64;91.54;101236.50;5052039;28;20513;-42
2023/07/24 08:46:07;;;;;;;21.35;7.40;;;;;;;13.67;91.23;101233.41;5051532;28;20021;-42
2023/07/24 08:48:38;;;;;;;26.30;8.63;;;;;;;13.67;91.14;101236.09;5049559;28;20025;-43
2023/07/24 08:51:12;;;;;;;26.67;8.05;;;;;;;13.63;91.66;101236.75;5051828;28;20478;-44
2023/07/24 08:53:40;;;;;;;28.38;8.52;;;;;;;13.66;91.52;101233.63;5051777;28;20052;-44
2023/07/24 08:56:09;;;;;;;22.98;8.15;;;;;;;13.67;91.50;101236.09;5051359;28;20024;-42
2023/07/24 08:58:36;;;;;;;27.38;8.98;;;;;;;13.59;92.12;101235.50;5049280;28;20013;-43
2023/07/24 09:01:04;;;;;;;20.48;7.78;;;;;;;13.66;91.75;101247.09;5051486;28;20029;-41
2023/07/24 09:03:33;;;;;;;24.98;8.02;;;;;;;13.65;92.37;101238.16;5051411;28;20028;-41
2023/07/24 09:06:03;;;;;;;19.30;7.43;;;;;;;13.68;91.62;101242.28;5051270;28;20024;-41
2023/07/24 09:08:34;;;;;;;21.02;7.70;;;;;;;13.54;92.24;101238.03;5051538;28;20063;-41
2023/07/24 09:11:02;;;;;;;29.48;8.35;;;;;;;13.50;92.34;101239.53;5051572;28;20021;-41
2023/07/24 09:13:29;;;;;;;26.48;8.27;;;;;;;13.50;92.24;101239.53;5048321;28;20025;-41
2023/07/24 09:15:55;;;;;;;31.55;9.50;;;;;;;13.58;91.92;101239.25;5031373;28;20108;-42
2023/07/24 09:18:22;;;;;;;26.52;8.40;;;;;;;13.48;92.29;101245.91;5047689;28;20379;-41
2023/07/24 09:20:49;;;;;;;23.05;9.13;;;;;;;13.43;92.66;101237.66;5051502;28;20037;-43
2023/07/24 09:23:16;;;;;;;21.67;7.82;;;;;;;13.47;92.60;101246.97;5051172;28;20032;-41
2023/07/24 09:25:44;;;;;;;20.13;8.18;;;;;;;13.41;92.92;101247.00;5051243;28;20029;-42
2023/07/24 09:28:17;;;;;;;26.35;8.52;;;;;;;13.39;92.72;101243.72;5052145;28;20040;-42
2023/07/24 09:30:58;;;;;;;23.98;8.50;;;;;;;13.44;92.79;101252.78;5055357;28;20025;-41
2023/07/24 09:33:35;;;;;;;24.67;8.75;;;;;;;13.43;92.38;101256.47;5055357;28;20032;-41
2023/07/24 09:36:03;;;;;;;31.15;9.07;;;;;;;13.39;92.77;101255.28;5054989;28;20021;-42
2023/07/24 09:38:30;;;;;;;26.88;9.10;;;;;;;13.44;92.50;101258.16;5055032;28;20563;-41
2023/07/24 09:40:57;;;;;;;28.95;9.05;;;;;;;13.32;93.23;101259.84;5055024;28;20104;-42
2023/07/24 09:43:25;;;;;;;23.40;8.13;;;;;;;13.24;94.10;101267.34;5055201;28;20029;-41
2023/07/24 09:45:53;;;;;;;26.95;9.35;;;;;;;13.30;93.63;101267.31;5054949;28;20021;-42
2023/07/24 09:48:21;;;;;;;24.50;9.10;;;;;;;13.37;93.70;101273.47;5047421;28;20036;-41
2023/07/24 09:50:49;;;;;;;29.98;8.95;;;;;;;13.40;93.08;101267.69;5054996;28;20025;-41
2023/07/24 09:53:31;;;;;;;21.30;8.55;;;;;;;13.35;93.85;101266.69;5054907;28;20103;-41
2023/07/24 09:56:00;;;;;;;30.00;8.15;;;;;;;13.32;93.94;101265.22;5054318;28;20423;-42
2023/07/24 09:58:27;;;;;;;27.10;9.43;;;;;;;13.24;94.30;101262.78;5054571;28;20543;-42
2023/07/24 10:00:54;;;;;;;30.20;9.13;;;;;;;13.14;95.15;101262.38;5054681;28;20040;-41
2023/07/24 10:03:22;;;;;;;17.98;7.72;;;;;;;13.11;94.99;101278.94;5054728;28;20036;-41
2023/07/24 10:05:50;;;;;;;16.20;7.65;;;;;;;13.05;95.51;101274.41;5054520;28;20025;-42
2023/07/24 10:08:19;;;;;;;33.40;8.77;;;;;;;13.14;95.54;101278.50;5054559;28;20029;-43
2023/07/24 10:10:51;;;;;;;25.27;8.00;;;;;;;13.02;96.52;101278.34;5054621;28;20531;-42
2023/07/24 10:13:18;;;;;;;27.90;9.10;;;;;;;13.03;96.73;101289.91;5052670;28;20037;-42
2023/07/24 10:15:47;;;;;;;25.48;9.05;;;;;;;12.92;97.11;101280.63;5047734;28;20391;-43
2023/07/24 10:18:17;;;;;;;20.98;8.35;;;;;;;12.94;97.42;101283.97;5054633;28;20487;-42
2023/07/24 10:20:44;;;;;;;29.40;9.23;;;;;;;12.98;97.95;101278.97;5054391;28;20029;-43
2023/07/24 10:23:16;;;;;;;30.13;9.15;;;;;;;13.03;97.97;101279.16;5053009;28;20492;-42
2023/07/24 10:25:45;;;;;;;21.02;8.27;;;;;;;12.92;98.26;101276.09;5054297;28;20029;-42
2023/07/24 10:28:12;;;;;;;24.55;8.68;;;;;;;13.00;98.41;101280.44;5054366;28;20022;-42
2023/07/24 10:30:42;;;;;;;19.20;7.47;;;;;;;13.03;98.47;101282.69;5054582;28;20546;-43
2023/07/24 10:33:17;;;;;;;25.42;8.82;;;;;;;12.99;98.33;101284.13;5055232;28;20029;-43
2023/07/24 10:35:51;;;;;;;13.93;7.67;;;;;;;12.94;97.86;101279.41;5054588;28;20052;-42
2023/07/24 10:38:17;;;;;;;17.52;7.18;;;;;;;12.99;97.33;101286.81;5054912;28;20111;-41
2023/07/24 10:40:46;;;;;;;19.08;7.22;;;;;;;13.04;97.40;101283.50;5052968;28;20470;-42
2023/07/24 10:43:19;;;;;;;18.65;7.07;;;;;;;12.90;98.21;101294.28;5054080;28;20047;-41
2023/07/24 10:45:53;;;;;;;19.42;7.47;;;;;;;12.85;99.25;101296.78;5053833;28;20033;-42
2023/07/24 10:48:21;;;;;;;22.75;7.03;;;;;;;12.83;99.19;101288.13;5053899;28;20032;-41
2023/07/24 10:50:49;;;;;;;16.75;6.97;;;;;;;12.81;99.93;101300.91;5052062;28;20043;-42
2023/07/24 10:53:19;;;;;;;17.15;6.82;;;;;;;12.85;99.67;101301.31;5053872;28;20029;-42
2023/07/24 10:55:47;;;;;;;14.18;6.00;;;;;;;12.88;99.29;101301.75;5053545;28;20021;-42
2023/07/24 10:58:14;;;;;;;12.73;5.35;;;;;;;12.87;100.00;101300.06;5053292;28;20021;-42
2023/07/24 11:00:42;;;;;;;14.05;5.72;;;;;;;12.76;100.00;101303.41;5046131;28;20017;-41
2023/07/24 11:03:12;;;;;;;8.95;4.78;;;;;;;12.73;100.00;101309.19;5033868;28;20069;-42
2023/07/24 11:05:46;;;;;;;15.57;5.68;;;;;;;12.77;100.00;101310.44;5043378;28;20045;-42
2023/07/24 11:08:18;;;;;;;16.10;6.13;;;;;;;12.84;100.00;101316.63;5053564;28;20532;-42
2023/07/24 11:10:56;;;;;;;9.95;5.03;;;;;;;12.92;100.00;101315.56;5053661;28;20087;-43
2023/07/24 11:13:25;;;;;;;8.93;4.88;;;;;;;12.86;100.00;101325.28;5053565;28;20036;-42
2023/07/24 11:15:52;;;;;;;10.48;5.15;;;;;;;12.79;100.00;101319.13;5053150;28;20107;-45
2023/07/24 11:18:26;;;;;;;6.82;4.63;;;;;;;12.90;100.00;101323.84;5053507;28;20483;-42